Time;durP1;ratioP1;P1;durP2;ratioP2;P2;SDS_P1;SDS_P2;PMS_P1;PMS_P2;Temp;Humidity;BMP_temperature;BMP_pressure;BME280_temperature;BME280_humidity;BME280_pressure;Samples;Min_cycle;Max_cycle;Signal;HPM_P1;HPM_P2
2022/08/27 00:02:13;;;;;;;16.75;7.82;;;;;;;;;;4954280;29;20027;-82
2022/08/27 00:04:40;;;;;;;17.33;7.20;;;;;;;;;;4953139;28;20401;-75
2022/08/27 00:07:06;;;;;;;16.85;7.57;;;;;;;;;;4953558;29;20031;-80
2022/08/27 00:09:33;;;;;;;17.05;6.93;;;;;;;;;;4953984;29;20035;-80
2022/08/27 00:11:59;;;;;;;16.90;6.85;;;;;;;;;;4953689;29;20027;-79
2022/08/27 00:14:26;;;;;;;20.63;7.03;;;;;;;;;;4953563;28;20046;-75
2022/08/27 00:16:53;;;;;;;15.23;6.78;;;;;;;;;;4952020;28;20031;-75
2022/08/27 00:19:20;;;;;;;15.40;7.25;;;;;;;;;;4953091;29;20039;-76
2022/08/27 00:21:45;;;;;;;20.73;7.15;;;;;;;;;;4953905;29;20054;-77
2022/08/27 00:24:12;;;;;;;20.75;7.45;;;;;;;;;;4953783;28;20557;-81
2022/08/27 00:26:38;;;;;;;21.05;7.53;;;;;;;;;;4953640;29;20035;-75
2022/08/27 00:29:04;;;;;;;18.08;7.15;;;;;;;;;;4935604;29;20047;-75
2022/08/27 00:31:30;;;;;;;17.58;7.78;;;;;;;;;;4953248;29;20131;-73
2022/08/27 00:33:56;;;;;;;17.88;7.60;;;;;;;;;;4953200;28;20113;-71
2022/08/27 00:36:23;;;;;;;13.60;7.03;;;;;;;;;;4953561;29;20031;-72
2022/08/27 00:38:49;;;;;;;14.50;6.57;;;;;;;;;;4953333;29;20035;-73
2022/08/27 00:41:16;;;;;;;21.83;7.95;;;;;;;;;;4953547;29;20050;-75
2022/08/27 00:43:49;;;;;;;13.65;7.68;;;;;;;;;;4952601;28;20107;-73
2022/08/27 00:46:38;;;;;;;13.27;6.97;;;;;;;;;;4952800;29;20126;-76
2022/08/27 00:49:14;;;;;;;17.02;8.13;;;;;;;;;;4953111;29;20442;-73
2022/08/27 00:51:42;;;;;;;14.93;7.28;;;;;;;;;;4952471;29;20035;-73
2022/08/27 00:54:08;;;;;;;17.10;7.28;;;;;;;;;;4953022;28;20027;-74
2022/08/27 00:56:43;;;;;;;26.42;8.93;;;;;;;;;;4952834;28;20114;-74
2022/08/27 00:59:14;;;;;;;15.32;7.28;;;;;;;;;;4944491;29;20046;-75
2022/08/27 01:04:29;;;;;;;16.75;7.88;;;;;;;;;;4952355;28;20042;-74
2022/08/27 01:06:56;;;;;;;16.80;8.13;;;;;;;;;;4952683;28;20037;-74
2022/08/27 01:09:24;;;;;;;18.40;8.15;;;;;;;;;;4952909;29;20115;-75
2022/08/27 01:11:50;;;;;;;18.38;8.07;;;;;;;;;;4952476;29;20114;-73
2022/08/27 01:14:17;;;;;;;17.20;8.52;;;;;;;;;;4937907;28;20095;-75
2022/08/27 01:16:48;;;;;;;23.15;8.20;;;;;;;;;;4952489;29;20038;-76
2022/08/27 01:19:32;;;;;;;18.85;8.55;;;;;;;;;;4952827;29;20053;-73
2022/08/27 01:22:25;;;;;;;21.13;8.57;;;;;;;;;;4952530;29;20054;-74
2022/08/27 01:24:55;;;;;;;20.23;8.75;;;;;;;;;;4952487;28;20055;-75
2022/08/27 01:27:26;;;;;;;17.27;8.73;;;;;;;;;;4952319;28;20668;-72
2022/08/27 01:29:52;;;;;;;17.23;9.02;;;;;;;;;;4964723;28;20470;-73
2022/08/27 01:32:25;;;;;;;17.88;8.98;;;;;;;;;;4971616;28;20039;-73
2022/08/27 01:34:51;;;;;;;17.42;8.98;;;;;;;;;;4971116;28;20035;-77
2022/08/27 01:37:19;;;;;;;15.38;8.18;;;;;;;;;;4971032;28;20093;-75
2022/08/27 01:39:44;;;;;;;18.45;8.82;;;;;;;;;;4969768;28;20406;-73
2022/08/27 01:42:32;;;;;;;16.90;8.38;;;;;;;;;;4970388;28;20023;-73
2022/08/27 01:45:26;;;;;;;13.90;8.13;;;;;;;;;;4961235;28;20456;-72
2022/08/27 01:47:52;;;;;;;14.35;8.73;;;;;;;;;;4954654;29;20047;-73
2022/08/27 01:50:25;;;;;;;14.98;8.25;;;;;;;;;;4955106;29;20074;-75
2022/08/27 01:52:53;;;;;;;12.73;7.57;;;;;;;;;;4954838;29;20031;-74
2022/08/27 01:55:24;;;;;;;14.27;6.90;;;;;;;;;;4954723;28;20023;-73
2022/08/27 01:57:53;;;;;;;21.33;8.07;;;;;;;;;;4954604;29;20036;-73
2022/08/27 02:00:27;;;;;;;21.40;8.77;;;;;;;;;;4954974;29;20031;-71
2022/08/27 02:02:54;;;;;;;23.33;8.57;;;;;;;;;;4954711;29;20031;-74
2022/08/27 02:05:21;;;;;;;18.58;8.02;;;;;;;;;;4953454;28;20031;-74
2022/08/27 02:07:47;;;;;;;17.83;7.60;;;;;;;;;;4958512;28;20628;-72
2022/08/27 02:10:18;;;;;;;16.50;8.05;;;;;;;;;;4951909;28;20501;-72
2022/08/27 02:12:44;;;;;;;21.42;7.88;;;;;;;;;;4963251;28;20574;-72
2022/08/27 02:15:11;;;;;;;19.17;8.75;;;;;;;;;;4972950;28;20106;-71
2022/08/27 02:17:37;;;;;;;19.52;8.35;;;;;;;;;;4974148;28;20126;-72
2022/08/27 02:20:05;;;;;;;16.60;8.15;;;;;;;;;;4957181;28;20026;-75
2022/08/27 02:22:31;;;;;;;17.70;7.63;;;;;;;;;;4959266;28;20046;-72
2022/08/27 02:24:57;;;;;;;18.88;8.73;;;;;;;;;;4956038;28;20027;-73
2022/08/27 02:27:23;;;;;;;18.35;8.35;;;;;;;;;;4955618;28;20032;-73
2022/08/27 02:29:50;;;;;;;12.82;7.55;;;;;;;;;;4955566;28;20047;-73
2022/08/27 02:32:17;;;;;;;17.58;7.30;;;;;;;;;;4955410;29;20402;-73
2022/08/27 02:34:42;;;;;;;19.38;7.35;;;;;;;;;;4953444;28;20027;-75
2022/08/27 02:37:08;;;;;;;14.05;7.13;;;;;;;;;;4955269;29;20385;-74
2022/08/27 02:39:34;;;;;;;13.20;6.35;;;;;;;;;;4955656;29;20480;-75
2022/08/27 02:42:00;;;;;;;15.88;7.07;;;;;;;;;;4955162;29;20723;-73
2022/08/27 02:44:26;;;;;;;11.05;6.30;;;;;;;;;;4954998;28;20027;-76
2022/08/27 02:46:52;;;;;;;17.33;7.85;;;;;;;;;;4955387;29;20069;-73
2022/08/27 02:49:17;;;;;;;14.18;6.65;;;;;;;;;;4955148;29;20037;-74
2022/08/27 02:51:44;;;;;;;18.70;6.38;;;;;;;;;;4938257;29;20122;-74
2022/08/27 02:54:09;;;;;;;17.17;6.55;;;;;;;;;;4955099;28;20035;-74
2022/08/27 02:56:37;;;;;;;15.18;7.03;;;;;;;;;;4955000;29;20039;-76
2022/08/27 02:59:03;;;;;;;12.82;6.88;;;;;;;;;;4955208;29;20378;-73
2022/08/27 03:01:29;;;;;;;13.25;7.03;;;;;;;;;;4955144;29;20062;-73
2022/08/27 03:03:55;;;;;;;20.52;7.20;;;;;;;;;;4954590;28;20078;-72
2022/08/27 03:06:21;;;;;;;12.98;6.75;;;;;;;;;;4955058;29;20111;-72
2022/08/27 03:08:47;;;;;;;16.38;6.93;;;;;;;;;;4954713;29;20107;-74
2022/08/27 03:11:13;;;;;;;18.08;7.68;;;;;;;;;;4955102;29;20073;-74
2022/08/27 03:13:39;;;;;;;13.95;6.60;;;;;;;;;;4954744;28;20031;-75
2022/08/27 03:16:06;;;;;;;18.35;6.90;;;;;;;;;;4954604;29;20461;-71
2022/08/27 03:18:32;;;;;;;17.58;7.10;;;;;;;;;;4954778;29;20553;-76
2022/08/27 03:21:02;;;;;;;21.88;8.02;;;;;;;;;;4954403;29;20066;-75
2022/08/27 03:23:33;;;;;;;24.02;9.52;;;;;;;;;;4954264;28;20086;-73
2022/08/27 03:26:02;;;;;;;14.85;7.55;;;;;;;;;;4954600;28;20066;-72
2022/08/27 03:28:31;;;;;;;14.50;7.30;;;;;;;;;;4956261;28;20024;-76
2022/08/27 03:31:00;;;;;;;17.38;7.35;;;;;;;;;;4972933;28;20034;-75
2022/08/27 03:33:29;;;;;;;13.25;6.25;;;;;;;;;;4973479;28;20113;-75
2022/08/27 03:35:55;;;;;;;13.40;6.72;;;;;;;;;;4973014;28;20089;-74
2022/08/27 03:38:21;;;;;;;19.25;8.02;;;;;;;;;;4972435;28;20030;-75
2022/08/27 03:40:48;;;;;;;18.83;7.80;;;;;;;;;;4972985;28;20544;-74
2022/08/27 03:43:15;;;;;;;16.95;8.30;;;;;;;;;;4972705;28;20019;-73
2022/08/27 03:45:44;;;;;;;15.85;7.22;;;;;;;;;;4972693;28;20047;-72
2022/08/27 03:48:12;;;;;;;18.42;7.18;;;;;;;;;;4973184;28;20548;-76
2022/08/27 03:50:40;;;;;;;19.55;8.23;;;;;;;;;;4972481;28;20114;-76
2022/08/27 03:53:06;;;;;;;21.52;7.75;;;;;;;;;;4973133;28;20062;-73
2022/08/27 03:55:32;;;;;;;22.95;8.27;;;;;;;;;;4972270;28;20338;-73
2022/08/27 03:57:58;;;;;;;18.85;8.70;;;;;;;;;;4972103;28;20023;-75
2022/08/27 04:00:24;;;;;;;19.33;8.57;;;;;;;;;;4972714;28;20035;-75
2022/08/27 04:02:50;;;;;;;15.60;7.53;;;;;;;;;;4972271;28;20027;-73
2022/08/27 04:05:17;;;;;;;23.13;8.07;;;;;;;;;;4972363;28;20034;-74
2022/08/27 04:07:43;;;;;;;17.58;7.82;;;;;;;;;;4972744;28;20140;-71
2022/08/27 04:10:11;;;;;;;15.57;7.55;;;;;;;;;;4971736;28;20458;-75
2022/08/27 04:12:37;;;;;;;12.88;7.85;;;;;;;;;;4973000;28;20022;-75
2022/08/27 04:15:04;;;;;;;12.55;7.07;;;;;;;;;;4972012;28;20042;-73
2022/08/27 04:17:30;;;;;;;16.15;7.82;;;;;;;;;;4971822;28;20030;-76
2022/08/27 04:19:56;;;;;;;18.42;8.23;;;;;;;;;;4972635;28;20039;-73
2022/08/27 04:22:22;;;;;;;23.73;8.63;;;;;;;;;;4972321;28;20150;-76
2022/08/27 04:24:48;;;;;;;17.98;8.13;;;;;;;;;;4971866;28;20478;-76
2022/08/27 04:27:15;;;;;;;15.27;6.85;;;;;;;;;;4972484;28;20027;-74
2022/08/27 04:29:41;;;;;;;11.15;6.30;;;;;;;;;;4971759;28;20057;-73
2022/08/27 04:32:07;;;;;;;12.57;6.85;;;;;;;;;;4972486;28;20034;-73
2022/08/27 04:34:33;;;;;;;18.20;7.47;;;;;;;;;;4971558;28;20035;-73
2022/08/27 04:36:59;;;;;;;15.38;7.22;;;;;;;;;;4971585;28;20023;-72
2022/08/27 04:39:27;;;;;;;18.55;7.38;;;;;;;;;;4971908;28;20045;-74
2022/08/27 04:41:54;;;;;;;16.90;7.70;;;;;;;;;;4971570;28;20046;-73
2022/08/27 04:44:21;;;;;;;14.73;7.15;;;;;;;;;;4971187;28;20111;-74
2022/08/27 04:46:48;;;;;;;20.20;6.78;;;;;;;;;;4971796;28;20023;-73
2022/08/27 04:49:15;;;;;;;15.38;6.90;;;;;;;;;;4962821;28;20437;-73
2022/08/27 04:51:41;;;;;;;16.38;6.63;;;;;;;;;;4973400;28;20082;-72
2022/08/27 04:54:09;;;;;;;20.38;6.85;;;;;;;;;;4973972;28;20378;-71
2022/08/27 04:56:36;;;;;;;19.63;6.93;;;;;;;;;;4974882;28;20022;-73
2022/08/27 04:59:07;;;;;;;18.75;6.18;;;;;;;;;;4973509;28;20037;-75
2022/08/27 05:01:35;;;;;;;12.52;6.75;;;;;;;;;;4974630;28;20389;-72
2022/08/27 05:04:00;;;;;;;10.77;5.43;;;;;;;;;;4974217;28;20098;-74
2022/08/27 05:06:27;;;;;;;15.45;6.45;;;;;;;;;;4974180;28;20130;-71
2022/08/27 05:08:53;;;;;;;13.68;6.63;;;;;;;;;;4974304;28;20102;-73
2022/08/27 05:11:20;;;;;;;13.32;6.38;;;;;;;;;;4974325;28;20105;-70
2022/08/27 05:13:46;;;;;;;13.48;6.65;;;;;;;;;;4974647;28;20022;-76
2022/08/27 05:16:17;;;;;;;19.50;6.70;;;;;;;;;;4973656;28;20081;-76
2022/08/27 05:18:43;;;;;;;16.60;5.70;;;;;;;;;;4972981;28;20374;-74
2022/08/27 05:21:17;;;;;;;15.68;6.38;;;;;;;;;;4973567;28;20027;-75
2022/08/27 05:23:43;;;;;;;15.98;5.78;;;;;;;;;;4974391;28;20089;-76
2022/08/27 05:26:09;;;;;;;19.05;6.45;;;;;;;;;;4974375;28;20026;-74
2022/08/27 05:28:35;;;;;;;14.00;5.15;;;;;;;;;;4971548;28;20051;-73
2022/08/27 05:31:08;;;;;;;19.92;6.13;;;;;;;;;;4970377;28;20035;-72
2022/08/27 05:33:35;;;;;;;13.57;6.10;;;;;;;;;;4972576;28;20038;-75
2022/08/27 05:36:01;;;;;;;19.25;5.57;;;;;;;;;;4971115;28;20019;-75
2022/08/27 05:38:29;;;;;;;17.05;5.97;;;;;;;;;;4972318;28;20027;-72
2022/08/27 05:41:10;;;;;;;16.30;6.53;;;;;;;;;;4972467;28;20018;-74
2022/08/27 05:43:37;;;;;;;14.43;6.00;;;;;;;;;;4972404;28;20027;-74
2022/08/27 05:46:05;;;;;;;12.90;6.32;;;;;;;;;;4972447;28;20022;-73
2022/08/27 05:48:34;;;;;;;14.45;5.95;;;;;;;;;;4972838;28;20066;-74
2022/08/27 05:51:28;;;;;;;15.43;6.28;;;;;;;;;;4974019;28;20033;-72
2022/08/27 05:54:00;;;;;;;15.60;5.95;;;;;;;;;;4953308;28;20039;-72
2022/08/27 05:56:28;;;;;;;19.65;6.70;;;;;;;;;;4973685;28;20031;-73
2022/08/27 06:01:48;;;;;;;17.90;6.50;;;;;;;;;;4973944;28;20462;-74
2022/08/27 06:04:15;;;;;;;13.00;5.97;;;;;;;;;;4973645;28;20039;-71
2022/08/27 06:06:42;;;;;;;16.83;6.63;;;;;;;;;;4973593;28;20029;-72
2022/08/27 06:09:11;;;;;;;16.70;6.15;;;;;;;;;;4973782;28;20035;-73
2022/08/27 06:11:37;;;;;;;14.77;6.70;;;;;;;;;;4973859;28;20031;-73
2022/08/27 06:14:04;;;;;;;15.52;7.18;;;;;;;;;;4973683;28;20093;-74
2022/08/27 06:16:30;;;;;;;17.60;6.28;;;;;;;;;;4973929;28;20057;-73
2022/08/27 06:18:57;;;;;;;14.82;6.82;;;;;;;;;;4973697;28;20117;-75
2022/08/27 06:21:23;;;;;;;15.77;6.72;;;;;;;;;;4973436;28;20023;-74
2022/08/27 06:23:49;;;;;;;21.63;7.00;;;;;;;;;;4973403;28;20039;-73
2022/08/27 06:26:17;;;;;;;17.27;6.90;;;;;;;;;;4973571;28;20053;-74
2022/08/27 06:28:44;;;;;;;12.85;6.25;;;;;;;;;;4973423;28;20451;-74
2022/08/27 06:31:19;;;;;;;17.85;7.05;;;;;;;;;;4973720;28;20039;-72
2022/08/27 06:33:46;;;;;;;18.23;6.82;;;;;;;;;;4967449;28;20402;-72
2022/08/27 06:36:15;;;;;;;17.50;6.13;;;;;;;;;;4953980;29;20030;-76
2022/08/27 06:38:42;;;;;;;14.80;6.50;;;;;;;;;;4954076;29;20079;-76
2022/08/27 06:41:09;;;;;;;22.52;7.32;;;;;;;;;;4954277;29;20027;-76
2022/08/27 06:43:37;;;;;;;16.05;6.25;;;;;;;;;;4954474;28;20027;-75
2022/08/27 06:46:04;;;;;;;22.67;6.43;;;;;;;;;;4954287;29;20023;-75
2022/08/27 06:48:30;;;;;;;16.23;6.65;;;;;;;;;;4954201;29;20031;-79
2022/08/27 06:50:56;;;;;;;12.77;6.63;;;;;;;;;;4954254;29;20034;-81
2022/08/27 06:53:22;;;;;;;13.50;6.75;;;;;;;;;;4954219;29;20035;-78
2022/08/27 06:55:48;;;;;;;14.90;6.47;;;;;;;;;;4936576;29;20478;-75
2022/08/27 06:58:16;;;;;;;17.13;6.55;;;;;;;;;;4954201;29;20040;-82
2022/08/27 07:00:43;;;;;;;17.73;5.40;;;;;;;;;;4956111;28;20467;-80
2022/08/27 07:03:10;;;;;;;13.55;5.35;;;;;;;;;;4957994;29;20075;-76
2022/08/27 07:05:39;;;;;;;18.55;6.30;;;;;;;;;;4958142;28;20051;-78
2022/08/27 07:08:06;;;;;;;20.73;6.55;;;;;;;;;;4957786;29;20122;-78
2022/08/27 07:10:33;;;;;;;17.88;6.30;;;;;;;;;;4957864;29;20023;-77
2022/08/27 07:12:59;;;;;;;17.48;6.53;;;;;;;;;;4957646;29;20063;-75
2022/08/27 07:15:25;;;;;;;17.15;6.47;;;;;;;;;;4957614;28;20054;-76
2022/08/27 07:17:51;;;;;;;18.00;6.20;;;;;;;;;;4957448;29;20431;-79
2022/08/27 07:20:19;;;;;;;17.15;5.78;;;;;;;;;;4956740;29;20078;-83
2022/08/27 07:22:46;;;;;;;17.48;5.97;;;;;;;;;;4957436;28;20401;-77
2022/08/27 07:25:17;;;;;;;14.85;6.03;;;;;;;;;;4957415;28;20381;-79
2022/08/27 07:27:43;;;;;;;23.25;6.10;;;;;;;;;;4954665;29;20046;-76
2022/08/27 07:30:12;;;;;;;18.45;5.82;;;;;;;;;;4971521;28;20039;-81
2022/08/27 07:32:38;;;;;;;17.05;5.82;;;;;;;;;;4975508;28;20035;-80
2022/08/27 07:35:08;;;;;;;19.30;7.63;;;;;;;;;;4957846;28;20023;-75
2022/08/27 07:37:38;;;;;;;19.25;5.63;;;;;;;;;;4975435;28;20036;-75
2022/08/27 07:40:15;;;;;;;13.10;5.43;;;;;;;;;;4974117;28;20031;-78
2022/08/27 07:45:28;;;;;;;19.52;5.97;;;;;;;;;;4970606;28;20027;-74
2022/08/27 07:47:54;;;;;;;15.70;5.47;;;;;;;;;;4950712;28;20027;-78
2022/08/27 07:50:22;;;;;;;13.95;5.20;;;;;;;;;;4954916;28;20482;-76
2022/08/27 07:52:51;;;;;;;15.07;5.30;;;;;;;;;;4970334;28;20106;-77
2022/08/27 07:55:17;;;;;;;15.82;5.70;;;;;;;;;;4953897;28;20051;-75
2022/08/27 07:57:44;;;;;;;16.20;5.22;;;;;;;;;;4968339;28;20027;-76
2022/08/27 08:00:11;;;;;;;17.15;5.68;;;;;;;;;;4974603;28;20035;-76
2022/08/27 08:02:46;;;;;;;19.70;5.85;;;;;;;;;;4974531;28;20041;-79
2022/08/27 08:05:15;;;;;;;20.30;6.57;;;;;;;;;;4971586;28;20027;-82
2022/08/27 08:07:41;;;;;;;13.05;4.50;;;;;;;;;;4959968;28;20027;-76
2022/08/27 08:10:10;;;;;;;18.60;5.03;;;;;;;;;;4964966;28;20038;-80
2022/08/27 08:12:38;;;;;;;15.85;4.72;;;;;;;;;;4956032;28;20030;-78
2022/08/27 08:15:08;;;;;;;27.38;5.78;;;;;;;;;;4970929;28;20038;-78
2022/08/27 08:17:34;;;;;;;21.35;5.05;;;;;;;;;;4974162;28;20034;-79
2022/08/27 08:20:01;;;;;;;17.92;5.25;;;;;;;;;;4955629;28;20031;-82
2022/08/27 08:22:27;;;;;;;19.17;5.40;;;;;;;;;;4973730;28;20071;-81
2022/08/27 08:24:53;;;;;;;13.73;4.93;;;;;;;;;;4973472;28;20027;-79
2022/08/27 08:27:19;;;;;;;15.73;4.93;;;;;;;;;;4972875;28;20074;-79
2022/08/27 08:29:46;;;;;;;18.58;5.38;;;;;;;;;;4974158;28;20046;-78
2022/08/27 08:32:12;;;;;;;22.58;5.95;;;;;;;;;;4961959;28;20086;-79
2022/08/27 08:34:38;;;;;;;17.83;5.82;;;;;;;;;;4955034;28;20383;-81
2022/08/27 08:37:05;;;;;;;18.92;5.72;;;;;;;;;;4954696;28;20082;-83
2022/08/27 08:39:31;;;;;;;15.15;5.55;;;;;;;;;;4954370;28;20098;-77
2022/08/27 08:42:00;;;;;;;16.17;5.65;;;;;;;;;;4954658;28;20031;-77
2022/08/27 08:44:37;;;;;;;15.43;5.53;;;;;;;;;;4953788;28;20030;-81
2022/08/27 08:47:18;;;;;;;18.08;5.32;;;;;;;;;;4937167;28;20122;-80
2022/08/27 08:50:13;;;;;;;23.60;5.60;;;;;;;;;;4973777;28;20102;-79
2022/08/27 08:52:47;;;;;;;21.60;5.10;;;;;;;;;;4963744;28;20046;-85
2022/08/27 08:55:28;;;;;;;17.65;5.30;;;;;;;;;;4973718;28;20035;-76
2022/08/27 08:58:10;;;;;;;14.52;5.40;;;;;;;;;;4953948;28;20043;-77
2022/08/27 09:00:37;;;;;;;27.73;5.45;;;;;;;;;;4954209;28;20041;-77
2022/08/27 09:03:03;;;;;;;13.60;5.40;;;;;;;;;;4954295;28;20023;-78
2022/08/27 09:05:29;;;;;;;21.33;5.82;;;;;;;;;;4954306;28;20035;-76
2022/08/27 09:08:01;;;;;;;14.35;4.93;;;;;;;;;;4953761;28;20483;-84
2022/08/27 09:10:42;;;;;;;18.67;5.85;;;;;;;;;;4966421;28;20031;-79
2022/08/27 09:13:23;;;;;;;18.30;5.47;;;;;;;;;;4973307;28;20039;-75
2022/08/27 09:15:53;;;;;;;21.45;5.10;;;;;;;;;;4972707;28;20030;-76
2022/08/27 09:18:19;;;;;;;19.63;5.15;;;;;;;;;;4973223;28;20086;-75
2022/08/27 09:20:48;;;;;;;22.05;6.00;;;;;;;;;;4972821;28;20035;-76
2022/08/27 09:23:33;;;;;;;18.52;5.50;;;;;;;;;;4966853;28;20054;-76
2022/08/27 09:25:59;;;;;;;17.50;4.97;;;;;;;;;;4972025;28;20822;-78
2022/08/27 09:31:19;;;;;;;13.27;4.68;;;;;;;;;;4952256;28;20035;-77
2022/08/27 09:33:45;;;;;;;19.92;4.55;;;;;;;;;;4953672;28;20129;-75
2022/08/27 09:36:14;;;;;;;15.52;4.25;;;;;;;;;;4952839;29;20102;-75
2022/08/27 09:38:51;;;;;;;15.50;4.72;;;;;;;;;;4951420;29;20134;-75
2022/08/27 09:41:22;;;;;;;12.95;4.45;;;;;;;;;;4953285;29;20035;-75
2022/08/27 09:44:01;;;;;;;13.93;4.20;;;;;;;;;;4953338;28;20042;-74
2022/08/27 09:46:27;;;;;;;15.70;4.47;;;;;;;;;;4953333;29;20031;-77
2022/08/27 09:48:54;;;;;;;17.83;4.60;;;;;;;;;;4953023;29;20034;-84
2022/08/27 09:51:24;;;;;;;15.65;4.40;;;;;;;;;;4953920;29;20483;-76
2022/08/27 09:53:59;;;;;;;18.75;4.30;;;;;;;;;;4951137;28;20031;-78
2022/08/27 09:56:34;;;;;;;16.85;4.82;;;;;;;;;;4965193;28;20093;-81
2022/08/27 09:59:05;;;;;;;18.85;4.93;;;;;;;;;;4972842;28;20038;-85
2022/08/27 10:01:34;;;;;;;20.85;4.40;;;;;;;;;;4960130;28;20406;-81
2022/08/27 10:04:13;;;;;;;14.38;3.75;;;;;;;;;;4955737;28;20397;-79
2022/08/27 10:06:50;;;;;;;16.20;4.47;;;;;;;;;;4972562;28;20089;-78
2022/08/27 10:09:35;;;;;;;20.42;4.75;;;;;;;;;;4965958;28;20035;-75
2022/08/27 10:12:18;;;;;;;14.35;4.57;;;;;;;;;;4962341;28;20031;-78
2022/08/27 10:14:49;;;;;;;14.27;4.57;;;;;;;;;;4952831;28;20028;-77
2022/08/27 10:17:36;;;;;;;9.77;3.72;;;;;;;;;;4953208;28;20114;-77
2022/08/27 10:20:18;;;;;;;14.00;3.92;;;;;;;;;;4935549;29;20036;-83
2022/08/27 10:23:04;;;;;;;14.93;3.80;;;;;;;;;;4952140;28;20035;-79
2022/08/27 10:25:42;;;;;;;12.07;3.50;;;;;;;;;;4961146;28;20033;-76
2022/08/27 10:28:28;;;;;;;14.95;6.15;;;;;;;;;;4971698;28;20073;-76
2022/08/27 10:31:16;;;;;;;16.83;3.53;;;;;;;;;;4972432;28;20042;-81
2022/08/27 10:33:52;;;;;;;17.67;4.07;;;;;;;;;;4972465;28;20050;-83
2022/08/27 10:36:54;;;;;;;17.48;3.75;;;;;;;;;;4975646;28;20037;-77
2022/08/27 10:39:49;;;;;;;15.60;3.72;;;;;;;;;;4958859;28;20046;-80
2022/08/27 10:42:39;;;;;;;15.68;3.90;;;;;;;;;;4964580;28;20046;-82
2022/08/27 10:45:16;;;;;;;14.48;4.10;;;;;;;;;;4974878;28;20043;-77
2022/08/27 10:47:59;;;;;;;14.18;3.83;;;;;;;;;;4975053;28;20027;-81
2022/08/27 10:50:40;;;;;;;18.92;4.00;;;;;;;;;;4960081;28;20070;-81
2022/08/27 10:53:49;;;;;;;16.25;4.38;;;;;;;;;;4977184;28;20051;-77
2022/08/27 10:56:40;;;;;;;16.10;4.40;;;;;;;;;;4943959;28;20050;-77
2022/08/27 10:59:20;;;;;;;17.33;4.28;;;;;;;;;;4966286;28;20054;-79
2022/08/27 11:02:01;;;;;;;17.05;3.80;;;;;;;;;;4977214;28;20375;-80
2022/08/27 11:04:34;;;;;;;21.17;3.83;;;;;;;;;;4977242;28;20113;-79
2022/08/27 11:07:07;;;;;;;15.85;4.30;;;;;;;;;;4977308;28;20034;-78
2022/08/27 11:09:39;;;;;;;13.68;4.40;;;;;;;;;;4977247;28;20381;-80
2022/08/27 11:12:08;;;;;;;13.77;4.30;;;;;;;;;;4977375;28;20477;-79
2022/08/27 11:14:55;;;;;;;22.02;4.13;;;;;;;;;;4977066;28;20134;-78
2022/08/27 11:17:29;;;;;;;15.20;3.78;;;;;;;;;;4977282;28;20085;-79
2022/08/27 11:20:23;;;;;;;18.33;4.10;;;;;;;;;;4976788;28;20379;-78
2022/08/27 11:23:09;;;;;;;18.02;4.30;;;;;;;;;;4976510;28;20041;-81
2022/08/27 11:25:51;;;;;;;19.63;4.50;;;;;;;;;;4976514;28;20035;-78
2022/08/27 11:28:24;;;;;;;15.52;4.40;;;;;;;;;;4976417;28;20038;-78
2022/08/27 11:31:00;;;;;;;18.88;4.05;;;;;;;;;;4975182;28;20045;-78
2022/08/27 11:33:42;;;;;;;15.00;3.90;;;;;;;;;;4976518;28;20066;-79
2022/08/27 11:36:35;;;;;;;12.70;4.07;;;;;;;;;;4976254;28;20114;-76
2022/08/27 11:39:04;;;;;;;19.55;4.82;;;;;;;;;;4977054;28;20101;-78
2022/08/27 11:41:50;;;;;;;15.07;4.18;;;;;;;;;;4958985;28;20038;-80
2022/08/27 11:44:21;;;;;;;18.63;4.63;;;;;;;;;;4976146;28;20034;-78
2022/08/27 11:46:53;;;;;;;12.57;5.68;;;;;;;;;;4974899;28;20486;-78
2022/08/27 11:49:29;;;;;;;14.93;4.00;;;;;;;;;;4976430;28;20513;-79
2022/08/27 11:51:58;;;;;;;22.33;4.45;;;;;;;;;;4975930;28;20034;-79
2022/08/27 11:54:30;;;;;;;17.52;4.38;;;;;;;;;;4975978;28;20125;-80
2022/08/27 11:56:56;;;;;;;15.65;4.38;;;;;;;;;;4976060;28;20042;-78
2022/08/27 11:59:25;;;;;;;18.05;4.28;;;;;;;;;;4975739;28;20374;-80
2022/08/27 12:01:56;;;;;;;20.52;4.22;;;;;;;;;;4975842;28;20031;-78
2022/08/27 12:04:34;;;;;;;13.75;4.10;;;;;;;;;;4975630;28;20038;-80
2022/08/27 12:07:26;;;;;;;15.27;4.18;;;;;;;;;;4975556;28;20051;-75
2022/08/27 12:10:06;;;;;;;14.02;3.67;;;;;;;;;;4975861;28;20427;-80
2022/08/27 12:13:02;;;;;;;19.40;4.65;;;;;;;;;;4975649;28;20039;-76
2022/08/27 12:15:43;;;;;;;12.23;3.78;;;;;;;;;;4975088;28;20081;-77
2022/08/27 12:18:26;;;;;;;10.30;3.45;;;;;;;;;;4975709;28;20433;-74
2022/08/27 12:20:56;;;;;;;;;;;;;;;;;;4962985;28;20122;-81
2022/08/27 12:23:49;;;;;;;13.55;3.35;;;;;;;;;;4956231;29;19918;-76
2022/08/27 12:26:24;;;;;;;12.63;3.85;;;;;;;;;;4955710;29;20071;-75
2022/08/27 12:29:13;;;;;;;9.23;3.72;;;;;;;;;;4955061;29;20043;-74
2022/08/27 12:31:42;;;;;;;12.68;3.60;;;;;;;;;;4955731;29;20074;-76
2022/08/27 12:34:28;;;;;;;19.02;5.03;;;;;;;;;;4955509;28;20023;-80
2022/08/27 12:36:55;;;;;;;11.80;3.92;;;;;;;;;;4938386;29;20078;-82
2022/08/27 12:39:31;;;;;;;16.88;4.50;;;;;;;;;;4955494;29;20467;-80
2022/08/27 12:41:57;;;;;;;10.77;4.22;;;;;;;;;;4954941;29;20119;-77
2022/08/27 12:44:30;;;;;;;15.38;4.15;;;;;;;;;;4955263;28;20116;-78
2022/08/27 12:47:07;;;;;;;13.85;4.43;;;;;;;;;;4955298;29;20085;-81
2022/08/27 12:49:42;;;;;;;20.65;4.70;;;;;;;;;;4955051;29;20175;-75
2022/08/27 12:52:14;;;;;;;24.10;4.28;;;;;;;;;;4955208;29;20042;-79
2022/08/27 12:54:59;;;;;;;20.83;5.32;;;;;;;;;;4954608;28;20042;-81
2022/08/27 12:58:03;;;;;;;15.00;4.43;;;;;;;;;;4954848;28;20065;-78
2022/08/27 13:00:50;;;;;;;18.63;3.90;;;;;;;;;;4955120;29;20066;-78
2022/08/27 13:03:32;;;;;;;18.77;3.88;;;;;;;;;;4954953;29;20039;-75
2022/08/27 13:06:00;;;;;;;13.82;4.07;;;;;;;;;;4955063;29;20027;-77
2022/08/27 13:08:32;;;;;;;15.23;3.97;;;;;;;;;;4954758;29;20046;-75
2022/08/27 13:11:29;;;;;;;15.80;3.97;;;;;;;;;;4955288;29;20036;-77
2022/08/27 13:14:26;;;;;;;13.25;4.10;;;;;;;;;;4939626;28;20129;-76
2022/08/27 13:16:56;;;;;;;18.50;4.18;;;;;;;;;;4937326;29;20079;-79
2022/08/27 13:19:35;;;;;;;11.65;3.13;;;;;;;;;;4954431;29;20039;-78
2022/08/27 13:22:04;;;;;;;15.15;4.20;;;;;;;;;;4954833;29;20042;-79
2022/08/27 13:24:32;;;;;;;12.85;4.00;;;;;;;;;;4954533;28;20478;-81
2022/08/27 13:27:01;;;;;;;14.43;4.05;;;;;;;;;;4953359;29;20043;-79
2022/08/27 13:29:27;;;;;;;12.35;3.63;;;;;;;;;;4964099;28;20057;-78
2022/08/27 13:31:54;;;;;;;18.33;3.75;;;;;;;;;;4973684;28;20035;-82
2022/08/27 13:34:24;;;;;;;9.43;3.58;;;;;;;;;;4973912;28;20037;-78
2022/08/27 13:36:56;;;;;;;12.52;4.00;;;;;;;;;;4973889;28;20027;-77
2022/08/27 13:39:22;;;;;;;;;;;;;;;;;;4972485;28;20410;-80
2022/08/27 13:41:49;;;;;;;15.20;3.92;;;;;;;;;;4968988;28;19918;-77
2022/08/27 13:44:35;;;;;;;20.88;4.43;;;;;;;;;;4952956;28;20027;-79
2022/08/27 13:47:07;;;;;;;14.20;4.20;;;;;;;;;;4953821;28;20037;-79
2022/08/27 13:49:35;;;;;;;16.52;4.18;;;;;;;;;;4936256;28;20423;-78
2022/08/27 13:52:29;;;;;;;16.85;3.72;;;;;;;;;;4953890;28;20055;-81
2022/08/27 13:55:05;;;;;;;21.55;3.97;;;;;;;;;;4942573;28;20047;-81
2022/08/27 13:57:47;;;;;;;10.43;3.72;;;;;;;;;;4953741;28;20082;-79
2022/08/27 14:00:17;;;;;;;15.90;3.92;;;;;;;;;;4953604;28;20047;-76
2022/08/27 14:02:45;;;;;;;25.70;4.22;;;;;;;;;;4965276;28;20031;-79
2022/08/27 14:05:14;;;;;;;12.48;3.63;;;;;;;;;;4971174;28;20101;-74
2022/08/27 14:08:09;;;;;;;14.63;4.70;;;;;;;;;;4973587;28;20470;-74
2022/08/27 14:10:38;;;;;;;16.33;3.70;;;;;;;;;;4975436;28;20031;-76
2022/08/27 14:13:10;;;;;;;13.45;3.35;;;;;;;;;;4977856;28;20024;-77
2022/08/27 14:15:47;;;;;;;10.48;3.72;;;;;;;;;;4978134;28;20427;-77
2022/08/27 14:18:50;;;;;;;15.65;4.07;;;;;;;;;;4958459;28;20431;-74
2022/08/27 14:21:16;;;;;;;18.48;3.70;;;;;;;;;;4960393;28;20413;-75
2022/08/27 14:23:42;;;;;;;17.85;3.72;;;;;;;;;;4968135;28;20031;-76
2022/08/27 14:26:08;;;;;;;16.58;4.15;;;;;;;;;;4977460;28;20039;-77
2022/08/27 14:28:34;;;;;;;16.88;3.45;;;;;;;;;;4977087;28;20023;-79
2022/08/27 14:31:00;;;;;;;16.08;3.83;;;;;;;;;;4973142;28;20394;-75
2022/08/27 14:33:26;;;;;;;15.88;3.45;;;;;;;;;;4965142;28;20750;-76
2022/08/27 14:35:52;;;;;;;17.15;3.85;;;;;;;;;;4976068;28;20117;-76
2022/08/27 14:38:21;;;;;;;12.48;3.40;;;;;;;;;;4957503;28;20102;-74
2022/08/27 14:40:50;;;;;;;10.07;3.75;;;;;;;;;;4957603;28;20039;-74
2022/08/27 14:43:16;;;;;;;14.55;3.42;;;;;;;;;;4957489;28;20538;-75
2022/08/27 14:45:44;;;;;;;12.63;3.42;;;;;;;;;;4957343;28;20047;-74
2022/08/27 14:48:22;;;;;;;12.98;3.92;;;;;;;;;;4956970;28;20027;-76
2022/08/27 14:50:48;;;;;;;13.38;3.25;;;;;;;;;;4957138;28;20027;-75
2022/08/27 14:53:16;;;;;;;12.35;3.70;;;;;;;;;;4957365;28;20027;-74
2022/08/27 14:55:42;;;;;;;16.17;4.45;;;;;;;;;;4957390;28;20031;-73
2022/08/27 14:58:09;;;;;;;12.45;3.55;;;;;;;;;;4957350;28;20032;-76
2022/08/27 15:00:36;;;;;;;14.57;3.50;;;;;;;;;;4956866;28;20111;-74
2022/08/27 15:03:02;;;;;;;15.57;3.70;;;;;;;;;;4957014;28;20024;-77
2022/08/27 15:05:28;;;;;;;14.82;3.28;;;;;;;;;;4956990;28;20422;-75
2022/08/27 15:07:56;;;;;;;15.73;3.88;;;;;;;;;;4969847;28;20027;-74